Grande Portogallo — IBZW — position and weather

sailwx.info

Track history (hours):
 
Tides and Currents Weather Stations Pressure Air Temp Water Temp Dewpoint Dewpoint Depression Visibility Wind Speed Wind Dir Waves Ship Positions

Grande Portogallo

Last reported at 2015-Jun-30 20:33 UTC. Time now 2015-Jun-30 21:26 UTC.
Position N 37°04' E 001°29'.

Length 176 m; draft 8.7 m.

Type: Cargo ship. MMSI: 247065500.

Date/timePositionNaut miles runAvg speedWind from/ knotsBaromVisibWave heightAir tempDewpointWater temp
2015-Jun-30 20:33N 37°04' E 001°29'1616.0
2015-Jun-30 19:33N 37°00' E 001°09'1716.4
2015-Jun-30 18:33N 36°56' E 000°49'1717.0
2015-Jun-30 17:33N 36°52' E 000°29'1716.6
2015-Jun-30 16:33N 36°48' E 000°09'1716.7
2015-Jun-30 15:33N 36°44' W 000°12'1716.6
2015-Jun-30 14:33N 36°41' W 000°32'1616.4
2015-Jun-30 13:34N 36°37' W 000°52'1514.5
2015-Jun-30 12:33N 36°34' W 001°09'1414.3
2015-Jun-30 11:33N 36°30' W 001°27'3214.3
2015-Jun-30 09:19N 36°23' W 002°06'1013.9
2015-Jun-30 08:33N 36°20' W 002°18'1414.5
2015-Jun-30 07:33N 36°18' W 002°36'1515.4
2015-Jun-30 06:33N 36°17' W 002°55'11416.3
2015-Jun-29 23:33N 36°00' W 005°15'21449.9
2015-Jun-29 19:16N 36°51' W 009°34'4 5.1
2015-Jun-29 18:33N 36°54' W 009°35'6 5.7
2015-Jun-29 17:32N 36°60' W 009°36'6 5.2
2015-Jun-29 16:19N 37°06' W 009°38'5 4.9
2015-Jun-29 15:24N 37°11' W 009°39'4 4.5
2015-Jun-29 14:33N 37°14' W 009°40'4 4.0
2015-Jun-29 13:33N 37°18' W 009°41'7475.0
2015-Jun-29 12:33N 36°25' W 008°37'1514.9
2015-Jun-29 11:33N 36°29' W 008°55'1514.9
2015-Jun-29 10:33N 36°33' W 009°13'1514.7
2015-Jun-29 09:33N 36°42' W 009°27'1514.7
2015-Jun-29 08:33N 36°55' W 009°35'1716.7
2015-Jun-29 07:33N 37°12' W 009°39'1515.2
2015-Jun-29 06:33N 37°26' W 009°43'1515.3
2015-Jun-29 05:33N 37°41' W 009°48'1515.2
2015-Jun-29 04:33N 37°56' W 009°52'1515.2
2015-Jun-29 03:34N 38°11' W 009°56'1515.1
2015-Jun-29 02:33N 38°26' W 010°01'1514.9
2015-Jun-29 01:33N 38°40' W 010°05'1514.9
2015-Jun-29 00:33N 38°55' W 010°06'1514.9
2015-Jun-28 23:33N 39°10' W 010°06'1515.1
2015-Jun-28 22:33N 39°25' W 010°06'1515.3
2015-Jun-28 21:33N 39°40' W 010°06'1515.2
2015-Jun-28 20:33N 39°56' W 010°06'1515.4
2015-Jun-28 19:33N 40°11' W 010°06'1615.5
2015-Jun-28 18:33N 40°27' W 010°05'1515.4
2015-Jun-28 17:33N 40°42' W 010°06'1715.4
2015-Jun-28 16:29N 40°58' W 010°06'1415.3
2015-Jun-28 15:33N 41°13' W 010°06'1615.4
2015-Jun-28 14:33N 41°28' W 010°06'3215.2
2015-Jun-28 12:24N 42°01' W 010°07'1814.9
2015-Jun-28 11:11N 42°19' W 010°08'1215.3
2015-Jun-28 10:23N 42°31' W 010°08'3415.1
2015-Jun-28 08:10N 43°05' W 010°07'1415.3
2015-Jun-28 07:16N 43°18' W 010°04'4615.0
2015-Jun-28 04:13N 43°59' W 009°34'2715.0
2015-Jun-28 02:24N 44°23' W 009°16'16314.6
2015-Jun-27 15:16N 46°46' W 007°27'17214.1
2015-Jun-27 03:07N 49°09' W 005°05'913.6
2015-Jun-27 02:28N 49°13' W 004°53'8113.8
2015-Jun-26 20:33N 49°54' W 003°05'3515.0
2015-Jun-26 18:13N 50°07' W 002°14'1314.0
2015-Jun-26 17:19N 50°11' W 001°55'1013.4
2015-Jun-26 16:33N 50°13' W 001°40'4313.2
2015-Jun-26 13:21N 50°24' W 000°35'1714.7
2015-Jun-26 12:12N 50°28' W 000°10'1015.2
2015-Jun-26 11:33N 50°31' E 000°05'1515.6
2015-Jun-26 10:34N 50°36' E 000°29'1515.2
2015-Jun-26 09:34N 50°43' E 000°49'1614.8
2015-Jun-26 08:29N 50°53' E 001°08'1314.0
2015-Jun-26 07:34N 51°02' E 001°24'1313.1
2015-Jun-26 06:33N 51°10' E 001°40'1413.7
2015-Jun-26 05:33N 51°21' E 001°54'1212.4
2015-Jun-26 04:33N 51°22' E 002°14'1514.9
2015-Jun-26 03:33N 51°22' E 002°38'1514.7
2015-Jun-26 02:34N 51°24' E 003°01'1616.3
2015-Jun-26 01:33N 51°25' E 003°28'1211.7
2015-Jun-26 00:33N 51°22' E 003°46'1110.7
2015-Jun-25 23:34N 51°23' E 004°03'1110.7
2015-Jun-25 22:33N 51°18' E 004°18'2 2.1
2015-Jun-25 21:33N 51°16' E 004°17'1 0.8
2015-Jun-25 20:33N 51°16' E 004°15'2 1.4
2015-Jun-25 19:20N 51°16' E 004°13'0 0.0
2015-Jun-25 18:26N 51°16' E 004°13'0 0.0
2015-Jun-25 17:29N 51°16' E 004°13'0 0.0
2015-Jun-25 16:32N 51°16' E 004°13'0 0.0
2015-Jun-25 15:32N 51°16' E 004°13'0 0.0
2015-Jun-25 14:32N 51°16' E 004°13'0 0.0
2015-Jun-25 13:32N 51°16' E 004°13'0 0.0
2015-Jun-25 12:29N 51°16' E 004°13'0 0.0
2015-Jun-25 11:26N 51°16' E 004°13'0 0.0
2015-Jun-25 10:29N 51°16' E 004°13'0 0.0
2015-Jun-25 09:32N 51°16' E 004°13'0 0.0
2015-Jun-25 08:32N 51°16' E 004°13'0 0.0
2015-Jun-25 07:26N 51°16' E 004°13'0 0.0
2015-Jun-25 06:32N 51°16' E 004°13'0 0.0
2015-Jun-25 05:32N 51°16' E 004°13'0 0.0
2015-Jun-25 04:32N 51°16' E 004°13'0 0.0
2015-Jun-25 03:32N 51°16' E 004°13'0 0.0
2015-Jun-25 02:32N 51°16' E 004°13'0 0.0
2015-Jun-25 01:29N 51°16' E 004°13'0 0.0
2015-Jun-25 00:32N 51°16' E 004°13'0 0.0
2015-Jun-24 23:32N 51°16' E 004°13'0 0.0
2015-Jun-24 22:32N 51°16' E 004°13'0 0.0
2015-Jun-24 21:32N 51°16' E 004°13'0 0.0
2015-Jun-24 20:32N 51°16' E 004°13'0 0.0
2015-Jun-24 19:32N 51°16' E 004°13'0 0.0
2015-Jun-24 18:32N 51°16' E 004°13'0 0.0
2015-Jun-24 17:23N 51°16' E 004°13'1 0.7
2015-Jun-24 16:33N 51°16' E 004°13'2 2.3
2015-Jun-24 15:34N 51°16' E 004°17'2 1.7
2015-Jun-24 14:34N 51°17' E 004°19'9 8.6
2015-Jun-24 13:34N 51°24' E 004°12'8 7.6
2015-Jun-24 12:33N 51°26' E 004°00'1010.4
2015-Jun-24 11:33N 51°22' E 003°45'10 9.8
2015-Jun-24 10:34N 51°25' E 003°30'1514.8
2015-Jun-24 09:34N 51°24' E 003°06'1514.7
2015-Jun-24 08:33N 51°22' E 002°43'1414.5
2015-Jun-24 07:33N 51°19' E 002°20'1716.7
2015-Jun-24 06:33N 51°11' E 001°57'1717.2
2015-Jun-24 05:33N 50°60' E 001°36'1817.9
2015-Jun-24 04:33N 50°44' E 001°23'1716.7
2015-Jun-24 03:33N 50°33' E 001°03'1616.4
2015-Jun-24 02:33N 50°28' E 000°39'1917.0
2015-Jun-24 01:25N 50°23' E 000°09'1615.8
2015-Jun-24 00:22N 50°26' W 000°16'1416.2
2015-Jun-23 23:32N 50°32' W 000°35'1616.4
2015-Jun-23 22:33N 50°41' W 000°57'1414.3
2015-Jun-23 21:33N 50°46' W 001°17'8 8.3
2015-Jun-23 20:34N 50°53' W 001°25'267 8.8
2015-Jun-22 14:21N 47°50' W 006°21'1215.1
2015-Jun-22 13:33N 47°39' W 006°29'3014.9
2015-Jun-22 11:33N 47°13' W 006°50'1515.3
2015-Jun-22 10:33N 46°59' W 007°01'1915.3
2015-Jun-22 09:17N 46°42' W 007°13'1115.3
2015-Jun-22 08:33N 46°32' W 007°20'1915.1
2015-Jun-22 07:17N 46°15' W 007°33'1315.3
2015-Jun-22 06:26N 46°03' W 007°42'13514.8
2015-Jun-21 21:21N 44°04' W 009°11'1114.3
2015-Jun-21 20:33N 43°54' W 009°17'17514.6
2015-Jun-21 08:33N 41°00' W 009°50'1616.3
2015-Jun-21 07:33N 40°44' W 009°49'1515.1
2015-Jun-21 06:33N 40°29' W 009°50'1515.2
2015-Jun-21 05:33N 40°14' W 009°49'1515.2
2015-Jun-21 04:33N 39°58' W 009°49'1515.1
2015-Jun-21 03:33N 39°43' W 009°49'1515.0
2015-Jun-21 02:33N 39°28' W 009°50'1514.8
2015-Jun-21 01:33N 39°14' W 009°50'1514.7
2015-Jun-21 00:33N 38°59' W 009°51'1514.8
2015-Jun-20 23:33N 38°44' W 009°51'1514.7
2015-Jun-20 22:33N 38°30' W 009°47'1514.9
2015-Jun-20 21:33N 38°15' W 009°42'1514.8
2015-Jun-20 20:33N 38°01' W 009°38'  
Track history (hours):
 
Tides and Currents Weather Stations Pressure Air Temp Water Temp Dewpoint Dewpoint Depression Visibility Wind Speed Wind Dir Waves Ship Positions

Grande Portogallo

Last reported at 2015-Jun-30 20:33 UTC. Time now 2015-Jun-30 21:26 UTC.
Position N 37°04' E 001°29'.

Length 176 m; draft 8.7 m.

Type: Cargo ship. MMSI: 247065500.

Date/timePositionNaut miles runAvg speedWind from/ knotsBaromVisibWave heightAir tempDewpointWater temp
2015-Jun-30 20:33N 37°04' E 001°29'1616.0
2015-Jun-30 19:33N 37°00' E 001°09'1716.4
2015-Jun-30 18:33N 36°56' E 000°49'1717.0
2015-Jun-30 17:33N 36°52' E 000°29'1716.6
2015-Jun-30 16:33N 36°48' E 000°09'1716.7
2015-Jun-30 15:33N 36°44' W 000°12'1716.6
2015-Jun-30 14:33N 36°41' W 000°32'1616.4
2015-Jun-30 13:34N 36°37' W 000°52'1514.5
2015-Jun-30 12:33N 36°34' W 001°09'1414.3
2015-Jun-30 11:33N 36°30' W 001°27'3214.3
2015-Jun-30 09:19N 36°23' W 002°06'1013.9
2015-Jun-30 08:33N 36°20' W 002°18'1414.5
2015-Jun-30 07:33N 36°18' W 002°36'1515.4
2015-Jun-30 06:33N 36°17' W 002°55'11416.3
2015-Jun-29 23:33N 36°00' W 005°15'21449.9
2015-Jun-29 19:16N 36°51' W 009°34'4 5.1
2015-Jun-29 18:33N 36°54' W 009°35'6 5.7
2015-Jun-29 17:32N 36°60' W 009°36'6 5.2
2015-Jun-29 16:19N 37°06' W 009°38'5 4.9
2015-Jun-29 15:24N 37°11' W 009°39'4 4.5
2015-Jun-29 14:33N 37°14' W 009°40'4 4.0
2015-Jun-29 13:33N 37°18' W 009°41'7475.0
2015-Jun-29 12:33N 36°25' W 008°37'1514.9
2015-Jun-29 11:33N 36°29' W 008°55'1514.9
2015-Jun-29 10:33N 36°33' W 009°13'1514.7
2015-Jun-29 09:33N 36°42' W 009°27'1514.7
2015-Jun-29 08:33N 36°55' W 009°35'1716.7
2015-Jun-29 07:33N 37°12' W 009°39'1515.2
2015-Jun-29 06:33N 37°26' W 009°43'1515.3
2015-Jun-29 05:33N 37°41' W 009°48'1515.2
2015-Jun-29 04:33N 37°56' W 009°52'1515.2
2015-Jun-29 03:34N 38°11' W 009°56'1515.1
2015-Jun-29 02:33N 38°26' W 010°01'1514.9
2015-Jun-29 01:33N 38°40' W 010°05'1514.9
2015-Jun-29 00:33N 38°55' W 010°06'1514.9
2015-Jun-28 23:33N 39°10' W 010°06'1515.1
2015-Jun-28 22:33N 39°25' W 010°06'1515.3
2015-Jun-28 21:33N 39°40' W 010°06'1515.2
2015-Jun-28 20:33N 39°56' W 010°06'1515.4
2015-Jun-28 19:33N 40°11' W 010°06'1615.5
2015-Jun-28 18:33N 40°27' W 010°05'1515.4
2015-Jun-28 17:33N 40°42' W 010°06'1715.4
2015-Jun-28 16:29N 40°58' W 010°06'1415.3
2015-Jun-28 15:33N 41°13' W 010°06'1615.4
2015-Jun-28 14:33N 41°28' W 010°06'3215.2
2015-Jun-28 12:24N 42°01' W 010°07'1814.9
2015-Jun-28 11:11N 42°19' W 010°08'1215.3
2015-Jun-28 10:23N 42°31' W 010°08'3415.1
2015-Jun-28 08:10N 43°05' W 010°07'1415.3
2015-Jun-28 07:16N 43°18' W 010°04'4615.0
2015-Jun-28 04:13N 43°59' W 009°34'2715.0
2015-Jun-28 02:24N 44°23' W 009°16'16314.6
2015-Jun-27 15:16N 46°46' W 007°27'17214.1
2015-Jun-27 03:07N 49°09' W 005°05'913.6
2015-Jun-27 02:28N 49°13' W 004°53'8113.8
2015-Jun-26 20:33N 49°54' W 003°05'3515.0
2015-Jun-26 18:13N 50°07' W 002°14'1314.0
2015-Jun-26 17:19N 50°11' W 001°55'1013.4
2015-Jun-26 16:33N 50°13' W 001°40'4313.2
2015-Jun-26 13:21N 50°24' W 000°35'1714.7
2015-Jun-26 12:12N 50°28' W 000°10'1015.2
2015-Jun-26 11:33N 50°31' E 000°05'1515.6
2015-Jun-26 10:34N 50°36' E 000°29'1515.2
2015-Jun-26 09:34N 50°43' E 000°49'1614.8
2015-Jun-26 08:29N 50°53' E 001°08'1314.0
2015-Jun-26 07:34N 51°02' E 001°24'1313.1
2015-Jun-26 06:33N 51°10' E 001°40'1413.7
2015-Jun-26 05:33N 51°21' E 001°54'1212.4
2015-Jun-26 04:33N 51°22' E 002°14'1514.9
2015-Jun-26 03:33N 51°22' E 002°38'1514.7
2015-Jun-26 02:34N 51°24' E 003°01'1616.3
2015-Jun-26 01:33N 51°25' E 003°28'1211.7
2015-Jun-26 00:33N 51°22' E 003°46'1110.7
2015-Jun-25 23:34N 51°23' E 004°03'1110.7
2015-Jun-25 22:33N 51°18' E 004°18'2 2.1
2015-Jun-25 21:33N 51°16' E 004°17'1 0.8
2015-Jun-25 20:33N 51°16' E 004°15'2 1.4
2015-Jun-25 19:20N 51°16' E 004°13'0 0.0
2015-Jun-25 18:26N 51°16' E 004°13'0 0.0
2015-Jun-25 17:29N 51°16' E 004°13'0 0.0
2015-Jun-25 16:32N 51°16' E 004°13'0 0.0
2015-Jun-25 15:32N 51°16' E 004°13'0 0.0
2015-Jun-25 14:32N 51°16' E 004°13'0 0.0
2015-Jun-25 13:32N 51°16' E 004°13'0 0.0
2015-Jun-25 12:29N 51°16' E 004°13'0 0.0
2015-Jun-25 11:26N 51°16' E 004°13'0 0.0
2015-Jun-25 10:29N 51°16' E 004°13'0 0.0
2015-Jun-25 09:32N 51°16' E 004°13'0 0.0
2015-Jun-25 08:32N 51°16' E 004°13'0 0.0
2015-Jun-25 07:26N 51°16' E 004°13'0 0.0
2015-Jun-25 06:32N 51°16' E 004°13'0 0.0
2015-Jun-25 05:32N 51°16' E 004°13'0 0.0
2015-Jun-25 04:32N 51°16' E 004°13'0 0.0
2015-Jun-25 03:32N 51°16' E 004°13'0 0.0
2015-Jun-25 02:32N 51°16' E 004°13'0 0.0
2015-Jun-25 01:29N 51°16' E 004°13'0 0.0
2015-Jun-25 00:32N 51°16' E 004°13'0 0.0
2015-Jun-24 23:32N 51°16' E 004°13'0 0.0
2015-Jun-24 22:32N 51°16' E 004°13'0 0.0
2015-Jun-24 21:32N 51°16' E 004°13'0 0.0
2015-Jun-24 20:32N 51°16' E 004°13'0 0.0
2015-Jun-24 19:32N 51°16' E 004°13'0 0.0
2015-Jun-24 18:32N 51°16' E 004°13'0 0.0
2015-Jun-24 17:23N 51°16' E 004°13'1 0.7
2015-Jun-24 16:33N 51°16' E 004°13'2 2.3
2015-Jun-24 15:34N 51°16' E 004°17'2 1.7
2015-Jun-24 14:34N 51°17' E 004°19'9 8.6
2015-Jun-24 13:34N 51°24' E 004°12'8 7.6
2015-Jun-24 12:33N 51°26' E 004°00'1010.4
2015-Jun-24 11:33N 51°22' E 003°45'10 9.8
2015-Jun-24 10:34N 51°25' E 003°30'1514.8
2015-Jun-24 09:34N 51°24' E 003°06'1514.7
2015-Jun-24 08:33N 51°22' E 002°43'1414.5
2015-Jun-24 07:33N 51°19' E 002°20'1716.7
2015-Jun-24 06:33N 51°11' E 001°57'1717.2
2015-Jun-24 05:33N 50°60' E 001°36'1817.9
2015-Jun-24 04:33N 50°44' E 001°23'1716.7
2015-Jun-24 03:33N 50°33' E 001°03'1616.4
2015-Jun-24 02:33N 50°28' E 000°39'1917.0
2015-Jun-24 01:25N 50°23' E 000°09'1615.8
2015-Jun-24 00:22N 50°26' W 000°16'1416.2
2015-Jun-23 23:32N 50°32' W 000°35'1616.4
2015-Jun-23 22:33N 50°41' W 000°57'1414.3
2015-Jun-23 21:33N 50°46' W 001°17'8 8.3
2015-Jun-23 20:34N 50°53' W 001°25'267 8.8
2015-Jun-22 14:21N 47°50' W 006°21'1215.1
2015-Jun-22 13:33N 47°39' W 006°29'3014.9
2015-Jun-22 11:33N 47°13' W 006°50'1515.3
2015-Jun-22 10:33N 46°59' W 007°01'1915.3
2015-Jun-22 09:17N 46°42' W 007°13'1115.3
2015-Jun-22 08:33N 46°32' W 007°20'1915.1
2015-Jun-22 07:17N 46°15' W 007°33'1315.3
2015-Jun-22 06:26N 46°03' W 007°42'13514.8
2015-Jun-21 21:21N 44°04' W 009°11'1114.3
2015-Jun-21 20:33N 43°54' W 009°17'17514.6
2015-Jun-21 08:33N 41°00' W 009°50'1616.3
2015-Jun-21 07:33N 40°44' W 009°49'1515.1
2015-Jun-21 06:33N 40°29' W 009°50'1515.2
2015-Jun-21 05:33N 40°14' W 009°49'1515.2
2015-Jun-21 04:33N 39°58' W 009°49'1515.1
2015-Jun-21 03:33N 39°43' W 009°49'1515.0
2015-Jun-21 02:33N 39°28' W 009°50'1514.8
2015-Jun-21 01:33N 39°14' W 009°50'1514.7
2015-Jun-21 00:33N 38°59' W 009°51'1514.8
2015-Jun-20 23:33N 38°44' W 009°51'1514.7
2015-Jun-20 22:33N 38°30' W 009°47'1514.9
2015-Jun-20 21:33N 38°15' W 009°42'1514.8
2015-Jun-20 20:33N 38°01' W 009°38'  

Dump ship's entire track history